createdAt,value
2023-02-02T00:01:55.130Z,98346.27
2023-02-02T00:04:22.894Z,98343.91
2023-02-02T00:06:50.556Z,98339.08
2023-02-02T00:09:18.319Z,98339.55
2023-02-02T00:11:45.981Z,98341.23
2023-02-02T00:14:13.646Z,98336.27
2023-02-02T00:16:41.414Z,98333.23
2023-02-02T00:19:09.173Z,98333.89
2023-02-02T00:21:38.369Z,98331.34
2023-02-02T00:24:06.034Z,98331.84
2023-02-02T00:26:33.838Z,98327.39
2023-02-02T00:29:01.660Z,98325.04
2023-02-02T00:31:29.465Z,98323.95
2023-02-02T00:33:57.189Z,98324.77
2023-02-02T00:36:24.847Z,98321.31
2023-02-02T00:38:53.547Z,98318.42
2023-02-02T00:41:21.504Z,98319.54
2023-02-02T00:44:09.135Z,98316.13
2023-02-02T00:46:36.898Z,98320.95
2023-02-02T00:49:04.562Z,98321.09
2023-02-02T00:51:32.427Z,98314.38
2023-02-02T00:54:00.185Z,98307.04
2023-02-02T00:56:28.059Z,98308.79
2023-02-02T00:58:55.817Z,98308.60
2023-02-02T01:01:23.644Z,98306.86
2023-02-02T01:03:51.551Z,98311.16
2023-02-02T01:06:19.315Z,98313.46
2023-02-02T01:08:46.999Z,98311.44
2023-02-02T01:11:14.743Z,98316.75
2023-02-02T01:13:42.510Z,98308.29
2023-02-02T01:16:10.284Z,98307.59
2023-02-02T01:18:38.034Z,98308.84
2023-02-02T01:21:05.797Z,98309.20
2023-02-02T01:23:33.457Z,98308.13
2023-02-02T01:26:01.118Z,98309.30
2023-02-02T01:28:28.781Z,98311.73
2023-02-02T01:30:56.471Z,98315.39
2023-02-02T01:33:24.206Z,98312.81
2023-02-02T01:35:51.872Z,98313.30
2023-02-02T01:38:19.631Z,98310.85
2023-02-02T01:40:47.396Z,98313.46
2023-02-02T01:43:16.182Z,98312.79
2023-02-02T01:45:43.956Z,98311.55
2023-02-02T01:48:11.710Z,98320.25
2023-02-02T01:50:39.372Z,98316.11
2023-02-02T01:53:07.033Z,98317.19
2023-02-02T01:55:34.702Z,98320.63
2023-02-02T01:58:02.459Z,98328.67
2023-02-02T02:00:30.222Z,98331.22
2023-02-02T02:02:57.955Z,98334.46
2023-02-02T02:05:26.108Z,98338.42
2023-02-02T02:07:53.931Z,98342.54
2023-02-02T02:10:21.587Z,98348.31
2023-02-02T02:12:49.354Z,98352.64
2023-02-02T02:15:35.853Z,98353.00
2023-02-02T02:18:03.614Z,98361.52
2023-02-02T02:20:50.327Z,98362.69
2023-02-02T02:23:37.338Z,98362.41
2023-02-02T02:26:23.976Z,98361.94
2023-02-02T02:28:51.712Z,98367.49
2023-02-02T02:31:19.645Z,98371.39
2023-02-02T02:33:47.648Z,98375.87
2023-02-02T02:36:15.311Z,98379.14
2023-02-02T02:38:43.074Z,98375.77
2023-02-02T02:41:10.846Z,98379.64
2023-02-02T02:43:38.600Z,98377.55
2023-02-02T02:46:06.391Z,98376.54
2023-02-02T02:48:34.228Z,98380.38
2023-02-02T02:51:02.019Z,98382.91
2023-02-02T02:53:29.758Z,98379.23
2023-02-02T02:55:57.425Z,98384.19
2023-02-02T02:58:25.082Z,98385.39
2023-02-02T03:00:52.744Z,98388.23
2023-02-02T03:03:20.513Z,98392.57
2023-02-02T03:05:48.169Z,98394.11
2023-02-02T03:08:15.829Z,98396.66
2023-02-02T03:10:43.596Z,98402.15
2023-02-02T03:13:11.558Z,98402.20
2023-02-02T03:15:39.248Z,98406.71
2023-02-02T03:18:06.987Z,98408.24
2023-02-02T03:20:34.752Z,98405.09
2023-02-02T03:23:02.515Z,98408.13
2023-02-02T03:25:30.182Z,98411.23
2023-02-02T03:27:57.839Z,98412.98
2023-02-02T03:30:25.545Z,98417.61
2023-02-02T03:32:53.368Z,98418.75
2023-02-02T03:35:21.134Z,98423.35
2023-02-02T03:37:48.897Z,98425.88
2023-02-02T03:40:16.658Z,98423.70
2023-02-02T03:42:44.429Z,98423.01
2023-02-02T03:45:12.192Z,98426.59
2023-02-02T03:47:39.949Z,98423.76
2023-02-02T03:50:09.594Z,98422.75
2023-02-02T03:52:37.633Z,98426.06
2023-02-02T03:55:05.697Z,98430.35
2023-02-02T03:57:33.462Z,98432.05
2023-02-02T04:00:01.134Z,98433.59
2023-02-02T04:02:28.923Z,98436.23
2023-02-02T04:04:56.754Z,98437.17
2023-02-02T04:07:24.417Z,98429.61
2023-02-02T04:09:52.059Z,98433.71
2023-02-02T04:12:19.746Z,98437.98
2023-02-02T04:14:47.504Z,98443.68
2023-02-02T04:17:15.270Z,98445.95
2023-02-02T04:19:42.939Z,98451.63
2023-02-02T04:22:10.696Z,98450.90
2023-02-02T04:24:38.354Z,98449.48
2023-02-02T04:27:06.118Z,98448.29
2023-02-02T04:29:33.884Z,98450.91
2023-02-02T04:32:01.649Z,98453.57
2023-02-02T04:34:29.414Z,98456.98
2023-02-02T04:36:57.377Z,98456.79
2023-02-02T04:39:25.143Z,98457.65
2023-02-02T04:41:52.921Z,98456.55
2023-02-02T04:44:20.675Z,98457.46
2023-02-02T04:46:48.336Z,98454.17
2023-02-02T04:49:15.994Z,98455.50
2023-02-02T04:51:44.380Z,98450.48
2023-02-02T04:54:12.046Z,98452.73
2023-02-02T04:56:39.808Z,98456.07
2023-02-02T04:59:07.464Z,98452.23
2023-02-02T05:01:35.138Z,98454.91
2023-02-02T05:04:02.884Z,98462.09
2023-02-02T05:06:30.546Z,98471.94
2023-02-02T05:08:58.317Z,98476.29
2023-02-02T05:11:26.197Z,98477.45
2023-02-02T05:13:53.943Z,98479.47
2023-02-02T05:16:21.645Z,98483.25
2023-02-02T05:18:49.366Z,98482.65
2023-02-02T05:21:17.130Z,98478.54
2023-02-02T05:23:44.795Z,98475.08
2023-02-02T05:26:12.557Z,98475.75
2023-02-02T05:28:41.451Z,98477.70
2023-02-02T05:31:09.245Z,98484.78
2023-02-02T05:33:37.084Z,98482.15
2023-02-02T05:36:04.841Z,98483.28
2023-02-02T05:38:32.506Z,98486.27
2023-02-02T05:41:00.163Z,98484.92
2023-02-02T05:43:28.028Z,98485.90
2023-02-02T05:45:55.825Z,98487.44
2023-02-02T05:48:23.661Z,98489.85
2023-02-02T05:50:51.422Z,98493.53
2023-02-02T05:53:19.087Z,98491.34
2023-02-02T05:55:46.745Z,98490.27
2023-02-02T05:58:14.418Z,98495.56
2023-02-02T06:00:42.091Z,98495.40
2023-02-02T06:03:09.905Z,98496.50
2023-02-02T06:05:37.801Z,98498.89
2023-02-02T06:08:05.465Z,98498.99
2023-02-02T06:10:33.227Z,98496.20
2023-02-02T06:13:01.001Z,98492.85
2023-02-02T06:15:29.590Z,98490.33
2023-02-02T06:17:58.671Z,98498.41
2023-02-02T06:20:26.435Z,98497.99
2023-02-02T06:22:54.199Z,98498.34
2023-02-02T06:25:21.922Z,98499.09
2023-02-02T06:27:50.037Z,98501.55
2023-02-02T06:30:17.795Z,98501.03
2023-02-02T06:32:45.560Z,98505.12
2023-02-02T06:35:13.220Z,98505.99
2023-02-02T06:37:42.344Z,98502.33
2023-02-02T06:40:10.082Z,98501.14
2023-02-02T06:42:37.853Z,98496.81
2023-02-02T06:45:05.506Z,98496.30
2023-02-02T06:47:33.167Z,98502.13
2023-02-02T06:50:00.930Z,98496.38
2023-02-02T06:52:28.636Z,98496.43
2023-02-02T06:54:56.460Z,98500.36
2023-02-02T06:57:24.192Z,98494.20
2023-02-02T06:59:52.520Z,98497.30
2023-02-02T07:02:20.345Z,98489.83
2023-02-02T07:04:48.128Z,98488.52
2023-02-02T07:07:15.893Z,98486.83
2023-02-02T07:09:43.662Z,98482.69
2023-02-02T07:12:11.325Z,98477.88
2023-02-02T07:14:39.083Z,98470.54
2023-02-02T07:17:06.745Z,98466.86
2023-02-02T07:19:34.509Z,98468.65
2023-02-02T07:22:02.156Z,98466.07
2023-02-02T07:24:29.841Z,98465.40
2023-02-02T07:26:58.270Z,98463.92
2023-02-02T07:29:26.178Z,98466.77
2023-02-02T07:31:53.982Z,98468.05
2023-02-02T07:34:21.815Z,98466.19
2023-02-02T07:36:49.574Z,98470.03
2023-02-02T07:39:17.336Z,98467.88
2023-02-02T07:41:44.999Z,98466.08
2023-02-02T07:44:12.660Z,98465.09
2023-02-02T07:46:40.373Z,98467.10
2023-02-02T07:49:08.089Z,98469.48
2023-02-02T07:51:37.927Z,98468.15
2023-02-02T07:54:06.685Z,98464.77
2023-02-02T07:56:34.450Z,98467.50
2023-02-02T07:59:02.224Z,98462.81
2023-02-02T08:01:30.052Z,98461.27
2023-02-02T08:03:59.176Z,98458.25
2023-02-02T08:06:28.470Z,98462.38
2023-02-02T08:08:56.253Z,98461.33
2023-02-02T08:11:24.009Z,98457.01
2023-02-02T08:13:51.668Z,98449.66
2023-02-02T08:16:19.456Z,98454.73
2023-02-02T08:18:47.292Z,98451.48
2023-02-02T08:21:15.060Z,98449.95
2023-02-02T08:23:42.729Z,98445.84
2023-02-02T08:26:10.594Z,98450.02
2023-02-02T08:28:38.348Z,98449.77
2023-02-02T08:31:06.227Z,98453.70
2023-02-02T08:33:34.082Z,98453.70
2023-02-02T08:36:01.853Z,98449.56
2023-02-02T08:38:29.613Z,98457.86
2023-02-02T08:40:57.884Z,98447.79
2023-02-02T08:43:25.546Z,98448.21
2023-02-02T08:46:01.422Z,98453.64
2023-02-02T08:48:31.626Z,98441.63
2023-02-02T08:50:59.590Z,98440.73
2023-02-02T08:53:27.367Z,98439.98
2023-02-02T08:55:55.119Z,98436.67
2023-02-02T08:58:22.781Z,98437.35
2023-02-02T09:00:50.559Z,98436.20
2023-02-02T09:03:18.411Z,98441.36
2023-02-02T09:05:46.173Z,98436.31
2023-02-02T09:08:13.979Z,98438.16
2023-02-02T09:10:41.703Z,98437.64
2023-02-02T09:13:09.363Z,98436.81
2023-02-02T09:15:37.639Z,98433.67
2023-02-02T09:18:05.303Z,98432.06
2023-02-02T09:20:32.964Z,98434.06
2023-02-02T09:23:00.833Z,98432.54
2023-02-02T09:25:28.602Z,98427.18
2023-02-02T09:27:56.267Z,98429.86
2023-02-02T09:30:23.919Z,98431.20
2023-02-02T09:32:51.678Z,98423.27
2023-02-02T09:35:19.440Z,98431.40
2023-02-02T09:37:47.211Z,98431.02
2023-02-02T09:40:15.072Z,98423.16
2023-02-02T09:42:42.961Z,98420.36
2023-02-02T09:45:10.599Z,98422.57
2023-02-02T09:47:53.935Z,98423.43
2023-02-02T09:50:21.691Z,98416.13
2023-02-02T09:52:49.456Z,98415.03
2023-02-02T09:55:17.225Z,98415.26
2023-02-02T09:57:44.985Z,98405.12
2023-02-02T10:00:12.652Z,98413.14
2023-02-02T10:02:40.334Z,98404.87
2023-02-02T10:05:09.006Z,98412.14
2023-02-02T10:07:36.762Z,98413.69
2023-02-02T10:10:04.727Z,98416.56
2023-02-02T10:12:32.498Z,98414.14
2023-02-02T10:15:00.325Z,98412.66
2023-02-02T10:17:28.221Z,98402.38
2023-02-02T10:19:55.991Z,98411.95
2023-02-02T10:22:23.759Z,98406.11
2023-02-02T10:24:51.541Z,98403.42
2023-02-02T10:27:19.278Z,98399.98
2023-02-02T10:29:49.212Z,98408.70
2023-02-02T10:32:23.327Z,98414.88
2023-02-02T10:34:55.591Z,98411.69
2023-02-02T10:37:28.574Z,98412.21
2023-02-02T10:39:56.348Z,98415.80
2023-02-02T10:42:24.089Z,98417.02
2023-02-02T10:44:51.749Z,98423.11
2023-02-02T10:47:19.412Z,98419.88
2023-02-02T10:49:47.176Z,98421.91
2023-02-02T10:52:14.937Z,98426.72
2023-02-02T10:54:55.282Z,98425.63
2023-02-02T10:57:24.086Z,98421.21
2023-02-02T10:59:51.851Z,98423.80
2023-02-02T11:02:21.467Z,98423.10
2023-02-02T11:05:08.270Z,98417.67
2023-02-02T11:07:36.031Z,98428.73
2023-02-02T11:10:04.206Z,98418.02
2023-02-02T11:12:31.968Z,98432.48
2023-02-02T11:15:01.987Z,98426.21
2023-02-02T11:17:30.132Z,98424.67
2023-02-02T11:19:57.935Z,98434.29
2023-02-02T11:22:25.994Z,98430.51
2023-02-02T11:24:53.766Z,98432.60
2023-02-02T11:27:21.522Z,98434.50
2023-02-02T11:29:49.290Z,98438.40
2023-02-02T11:32:17.049Z,98438.35
2023-02-02T11:34:44.714Z,98442.16
2023-02-02T11:37:13.155Z,98442.48
2023-02-02T11:39:41.058Z,98443.42
2023-02-02T11:42:08.829Z,98450.23
2023-02-02T11:44:36.586Z,98461.55
2023-02-02T11:47:05.071Z,98464.52
2023-02-02T11:49:32.727Z,98462.80
2023-02-02T11:52:00.495Z,98467.89
2023-02-02T11:54:31.531Z,98470.59
2023-02-02T11:56:59.298Z,98469.27
2023-02-02T11:59:27.062Z,98469.27
2023-02-02T12:01:54.760Z,98476.79
2023-02-02T12:04:22.525Z,98473.34
2023-02-02T12:06:50.271Z,98471.49
2023-02-02T12:09:18.016Z,98478.24
2023-02-02T12:11:45.781Z,98480.29
2023-02-02T12:14:13.543Z,98480.12
2023-02-02T12:16:41.234Z,98487.05
2023-02-02T12:19:08.972Z,98482.47
2023-02-02T12:21:36.732Z,98488.14
2023-02-02T12:24:04.408Z,98489.31
2023-02-02T12:26:32.091Z,98489.00
2023-02-02T12:28:59.921Z,98493.90
2023-02-02T12:31:27.728Z,98488.73
2023-02-02T12:33:55.454Z,98492.51
2023-02-02T12:36:23.109Z,98495.66
2023-02-02T12:38:55.075Z,98499.70
2023-02-02T12:41:22.839Z,98500.96
2023-02-02T12:43:50.499Z,98506.96
2023-02-02T12:46:18.308Z,98507.67
2023-02-02T12:48:46.234Z,98506.91
2023-02-02T12:51:14.009Z,98513.87
2023-02-02T12:53:41.657Z,98512.84
2023-02-02T12:56:09.320Z,98522.64
2023-02-02T12:58:37.089Z,98523.69
2023-02-02T13:01:04.907Z,98512.05
2023-02-02T13:03:33.029Z,98522.23
2023-02-02T13:06:00.689Z,98526.36
2023-02-02T13:08:28.342Z,98534.61
2023-02-02T13:10:55.888Z,98536.34
2023-02-02T13:13:24.629Z,98544.50
2023-02-02T13:15:52.214Z,98548.21
2023-02-02T13:18:19.796Z,98553.21
2023-02-02T13:20:47.475Z,98558.35
2023-02-02T13:23:15.106Z,98559.01
2023-02-02T13:25:42.797Z,98560.41
2023-02-02T13:28:11.172Z,98569.93
2023-02-02T13:30:38.817Z,98570.26
2023-02-02T13:33:06.585Z,98579.87
2023-02-02T13:35:34.258Z,98579.90
2023-02-02T13:38:01.852Z,98582.71
2023-02-02T13:40:29.736Z,98589.02
2023-02-02T13:42:57.869Z,98589.51
2023-02-02T13:45:25.893Z,98593.60
2023-02-02T13:47:53.895Z,98593.46
2023-02-02T13:50:21.511Z,98591.96
2023-02-02T13:52:49.221Z,98596.46
2023-02-02T13:55:16.879Z,98597.67
2023-02-02T13:57:44.650Z,98609.70
2023-02-02T14:00:12.317Z,98608.31
2023-02-02T14:02:39.919Z,98613.03
2023-02-02T14:05:07.626Z,98618.71
2023-02-02T14:07:35.292Z,98625.73
2023-02-02T14:10:04.844Z,98625.53
2023-02-02T14:12:32.450Z,98628.95
2023-02-02T14:15:00.220Z,98634.88
2023-02-02T14:17:27.882Z,98638.33
2023-02-02T14:19:55.644Z,98641.40
2023-02-02T14:22:23.227Z,98651.73
2023-02-02T14:24:50.867Z,98651.74
2023-02-02T14:27:18.588Z,98660.54
2023-02-02T14:29:47.084Z,98666.66
2023-02-02T14:32:15.078Z,98669.82
2023-02-02T14:34:42.738Z,98675.16
2023-02-02T14:37:10.402Z,98684.11
2023-02-02T14:39:38.026Z,98687.56
2023-02-02T14:42:24.681Z,98697.81
2023-02-02T14:44:52.249Z,98703.02
2023-02-02T14:47:19.828Z,98708.70
2023-02-02T14:49:47.391Z,98712.99
2023-02-02T14:52:14.956Z,98715.05
2023-02-02T14:54:42.576Z,98730.05
2023-02-02T14:57:10.534Z,98731.18
2023-02-02T14:59:38.196Z,98742.18
2023-02-02T15:02:05.841Z,98743.48
2023-02-02T15:04:33.570Z,98747.03
2023-02-02T15:07:01.186Z,98751.09
2023-02-02T15:09:31.321Z,98757.30
2023-02-02T15:12:00.831Z,98763.27
2023-02-02T15:14:29.440Z,98783.43
2023-02-02T15:16:57.052Z,98787.28
2023-02-02T15:19:24.679Z,98804.06
2023-02-02T15:21:53.510Z,98812.91
2023-02-02T15:24:21.824Z,98826.10
2023-02-02T15:26:49.576Z,98841.47
2023-02-02T15:29:17.298Z,98852.80
2023-02-02T15:31:45.015Z,98857.55
2023-02-02T15:34:12.833Z,98865.52
2023-02-02T15:36:40.494Z,98873.24
2023-02-02T15:39:08.256Z,98883.88
2023-02-02T15:41:35.918Z,98888.05
2023-02-02T15:44:03.578Z,98891.22
2023-02-02T15:46:32.531Z,98897.76
2023-02-02T15:49:00.240Z,98900.96
2023-02-02T15:51:28.202Z,98904.01
2023-02-02T15:53:55.760Z,98916.77
2023-02-02T15:56:23.432Z,98927.34
2023-02-02T15:58:51.084Z,98935.06
2023-02-02T16:01:18.709Z,98945.84
2023-02-02T16:03:46.411Z,98956.16
2023-02-02T16:06:13.990Z,98959.61
2023-02-02T16:08:42.035Z,98963.47
2023-02-02T16:11:09.708Z,98964.77
2023-02-02T16:13:37.361Z,98967.60
2023-02-02T16:16:06.907Z,98967.13
2023-02-02T16:18:34.577Z,98975.76
2023-02-02T16:21:02.288Z,98978.93
2023-02-02T16:23:29.884Z,98977.20
2023-02-02T16:25:57.524Z,98986.32
2023-02-02T16:28:25.056Z,98986.70
2023-02-02T16:30:52.776Z,98991.09
2023-02-02T16:33:20.393Z,98994.51
2023-02-02T16:35:48.054Z,99000.95
2023-02-02T16:38:15.931Z,99010.73
2023-02-02T16:40:43.585Z,99012.11
2023-02-02T16:43:11.448Z,99019.70
2023-02-02T16:45:39.131Z,99023.35
2023-02-02T16:48:06.744Z,99022.16
2023-02-02T16:50:34.368Z,99032.67
2023-02-02T16:53:02.102Z,99039.01
2023-02-02T16:55:47.531Z,99051.72
2023-02-02T16:58:17.602Z,99052.03
2023-02-02T17:00:45.369Z,99055.79
2023-02-02T17:03:12.972Z,99063.14
2023-02-02T17:05:40.577Z,99068.41
2023-02-02T17:08:08.543Z,99075.89
2023-02-02T17:10:36.247Z,99086.84
2023-02-02T17:13:03.831Z,99096.84
2023-02-02T17:15:34.386Z,99098.92
2023-02-02T17:18:02.599Z,99103.84
2023-02-02T17:20:30.277Z,99103.83
2023-02-02T17:22:57.993Z,99103.38
2023-02-02T17:25:25.897Z,99103.64
2023-02-02T17:27:53.933Z,99113.01
2023-02-02T17:30:21.903Z,99112.85
2023-02-02T17:32:49.561Z,99122.27
2023-02-02T17:35:17.271Z,99132.35
2023-02-02T17:37:44.894Z,99136.95
2023-02-02T17:40:12.553Z,99140.86
2023-02-02T17:42:40.434Z,99145.01
2023-02-02T17:45:08.075Z,99146.14
2023-02-02T17:47:37.724Z,99151.86
2023-02-02T17:50:05.346Z,99149.15
2023-02-02T17:52:33.009Z,99155.39
2023-02-02T17:55:00.663Z,99158.71
2023-02-02T17:57:28.332Z,99157.24
2023-02-02T17:59:55.993Z,99165.30
2023-02-02T18:02:23.551Z,99169.15
2023-02-02T18:04:51.191Z,99173.52
2023-02-02T18:07:18.771Z,99179.43
2023-02-02T18:09:46.434Z,99179.42
2023-02-02T18:12:13.995Z,99181.68
2023-02-02T18:14:41.621Z,99188.55
2023-02-02T18:17:09.324Z,99194.77
2023-02-02T18:19:39.324Z,99197.52
2023-02-02T18:22:07.092Z,99202.13
2023-02-02T18:24:34.858Z,99200.02
2023-02-02T18:27:02.839Z,99198.09
2023-02-02T18:29:30.503Z,99200.15
2023-02-02T18:31:58.751Z,99201.64
2023-02-02T18:34:26.425Z,99203.64
2023-02-02T18:36:54.007Z,99206.81
2023-02-02T18:39:21.674Z,99214.80
2023-02-02T18:41:49.254Z,99214.27
2023-02-02T18:44:17.286Z,99221.70
2023-02-02T18:46:44.995Z,99226.21
2023-02-02T18:49:12.721Z,99225.27
2023-02-02T18:51:41.488Z,99230.21
2023-02-02T18:54:09.355Z,99236.55
2023-02-02T18:56:37.026Z,99238.74
2023-02-02T18:59:06.133Z,99245.87
2023-02-02T19:01:33.756Z,99247.98
2023-02-02T19:04:01.704Z,99254.45
2023-02-02T19:06:48.346Z,99258.73
2023-02-02T19:09:17.512Z,99262.55
2023-02-02T19:11:45.310Z,99269.36
2023-02-02T19:14:12.905Z,99280.86
2023-02-02T19:16:40.530Z,99288.81
2023-02-02T19:19:08.141Z,99292.84
2023-02-02T19:21:36.058Z,99303.65
2023-02-02T19:24:03.609Z,99307.70
2023-02-02T19:26:32.674Z,99315.38
2023-02-02T19:29:00.273Z,99319.05
2023-02-02T19:31:28.045Z,99320.36
2023-02-02T19:33:55.747Z,99322.75
2023-02-02T19:36:23.541Z,99323.11
2023-02-02T19:38:57.472Z,99330.84
2023-02-02T19:41:25.135Z,99331.98
2023-02-02T19:43:53.462Z,99338.47
2023-02-02T19:46:22.782Z,99341.86
2023-02-02T19:48:50.694Z,99349.39
2023-02-02T19:51:18.338Z,99353.64
2023-02-02T19:53:45.916Z,99357.85
2023-02-02T19:56:14.058Z,99361.79
2023-02-02T19:58:41.653Z,99368.50
2023-02-02T20:01:09.356Z,99377.22
2023-02-02T20:03:37.675Z,99387.00
2023-02-02T20:06:05.305Z,99385.59
2023-02-02T20:08:32.956Z,99390.63
2023-02-02T20:11:00.975Z,99401.64
2023-02-02T20:13:28.571Z,99403.25
2023-02-02T20:16:03.619Z,99410.94
2023-02-02T20:18:32.140Z,99410.99
2023-02-02T20:20:59.773Z,99418.48
2023-02-02T20:23:27.363Z,99416.27
2023-02-02T20:25:54.973Z,99421.84
2023-02-02T20:28:22.592Z,99428.16
2023-02-02T20:30:50.225Z,99432.17
2023-02-02T20:33:17.853Z,99433.39
2023-02-02T20:35:45.411Z,99442.02
2023-02-02T20:38:12.964Z,99446.96
2023-02-02T20:40:40.547Z,99451.27
2023-02-02T20:43:08.131Z,99457.35
2023-02-02T20:45:35.774Z,99462.33
2023-02-02T20:48:03.539Z,99468.39
2023-02-02T20:50:31.171Z,99467.16
2023-02-02T20:53:00.025Z,99469.39
2023-02-02T20:55:29.007Z,99477.42
2023-02-02T20:57:56.666Z,99477.23
2023-02-02T21:00:27.753Z,99479.02
2023-02-02T21:02:55.678Z,99481.30
2023-02-02T21:05:26.412Z,99479.82
2023-02-02T21:07:57.040Z,99491.13
2023-02-02T21:10:25.088Z,99490.54
2023-02-02T21:12:52.907Z,99490.09
2023-02-02T21:15:20.476Z,99498.66
2023-02-02T21:17:48.099Z,99500.05
2023-02-02T21:20:16.734Z,99497.61
2023-02-02T21:22:45.569Z,99499.79
2023-02-02T21:25:13.153Z,99501.17
2023-02-02T21:27:44.609Z,99502.22
2023-02-02T21:30:14.723Z,99500.48
2023-02-02T21:32:42.398Z,99509.31
2023-02-02T21:35:10.433Z,99509.43
2023-02-02T21:37:38.199Z,99509.96
2023-02-02T21:40:06.574Z,99516.15
2023-02-02T21:42:35.704Z,99517.69
2023-02-02T21:45:03.329Z,99517.56
2023-02-02T21:47:30.993Z,99522.21
2023-02-02T21:49:58.768Z,99527.47
2023-02-02T21:52:26.417Z,99532.92
2023-02-02T21:54:53.981Z,99538.31
2023-02-02T21:57:21.652Z,99538.60
2023-02-02T21:59:49.308Z,99537.19
2023-02-02T22:02:16.983Z,99541.53
2023-02-02T22:04:44.605Z,99543.23
2023-02-02T22:07:12.202Z,99545.23
2023-02-02T22:09:39.843Z,99552.88
2023-02-02T22:12:07.408Z,99550.77
2023-02-02T22:14:34.976Z,99554.65
2023-02-02T22:17:02.611Z,99560.43
2023-02-02T22:19:30.224Z,99562.49
2023-02-02T22:21:57.859Z,99558.11
2023-02-02T22:24:25.506Z,99560.52
2023-02-02T22:26:53.110Z,99561.64
2023-02-02T22:29:21.855Z,99568.28
2023-02-02T22:31:49.532Z,99573.69
2023-02-02T22:34:17.203Z,99574.59
2023-02-02T22:36:44.806Z,99578.92
2023-02-02T22:39:12.402Z,99589.38
2023-02-02T22:41:40.057Z,99596.52
2023-02-02T22:44:07.660Z,99599.70
2023-02-02T22:46:35.254Z,99603.37
2023-02-02T22:49:02.939Z,99603.11
2023-02-02T22:51:30.528Z,99606.16
2023-02-02T22:53:58.108Z,99611.05
2023-02-02T22:56:26.276Z,99612.77
2023-02-02T22:58:53.891Z,99617.40
2023-02-02T23:01:21.597Z,99615.93
2023-02-02T23:03:49.813Z,99617.41
2023-02-02T23:06:17.491Z,99624.67
2023-02-02T23:08:46.176Z,99628.52
2023-02-02T23:11:13.858Z,99630.73
2023-02-02T23:13:41.455Z,99631.72
2023-02-02T23:16:11.016Z,99632.25
2023-02-02T23:18:38.759Z,99629.85
2023-02-02T23:21:06.431Z,99632.02
2023-02-02T23:23:34.031Z,99638.39
2023-02-02T23:26:01.651Z,99645.95
2023-02-02T23:28:29.248Z,99643.52
2023-02-02T23:30:59.369Z,99655.07
2023-02-02T23:33:27.209Z,99662.16
2023-02-02T23:35:54.896Z,99664.36
2023-02-02T23:38:22.492Z,99670.54
2023-02-02T23:40:50.180Z,99679.25
2023-02-02T23:43:17.831Z,99676.45
2023-02-02T23:45:45.389Z,99678.10
2023-02-02T23:48:13.312Z,99677.55
2023-02-02T23:50:41.046Z,99680.61
2023-02-02T23:53:08.795Z,99678.55
2023-02-02T23:55:36.381Z,99680.70
2023-02-02T23:58:04.014Z,99681.77
